GLO1782 SBEG-SBSN
Flight info
| Callsign | GLO1782 |
|---|---|
| Flight time | 0h 53m |
| Altitude | 31000 |
| Route | XOLOK UZ81 TOBUX DCT STM |
| Aircraft | B38M/M-SDE1FGHILORVWXY/HB1 |
Departure
| Time | 2026-04-22 16:53 |
|---|---|
| Airport | Eduardo Gomes International Airport (SBEG) |
Arrival
| Time | 2026-04-22 17:46 |
|---|---|
| Airport | Santarém - Maestro Wilson Fonseca International Airport (SBSN) |
| Time | Latitude | Longitude | Altitude | Speed | Heading |
|---|---|---|---|---|---|
| 2026-04-22 16:39 | -3.03271 | -60.04539 | 271 ft | 0 kts | 354° |
| 2026-04-22 16:42 | -3.03277 | -60.04539 | 270 ft | 2 kts | 354° |
| 2026-04-22 16:42 | -3.03292 | -60.04537 | 270 ft | 2 kts | 354° |
| 2026-04-22 16:42 | -3.03307 | -60.04535 | 270 ft | 2 kts | 354° |
| 2026-04-22 16:42 | -3.03323 | -60.04534 | 269 ft | 2 kts | 354° |
| 2026-04-22 16:43 | -3.03335 | -60.04533 | 270 ft | 0 kts | 354° |
| 2026-04-22 16:43 | -3.03346 | -60.04529 | 270 ft | 2 kts | 311° |
| 2026-04-22 16:43 | -3.03350 | -60.04519 | 270 ft | 0 kts | 267° |
| 2026-04-22 16:43 | -3.03349 | -60.04512 | 270 ft | 1 kts | 262° |
| 2026-04-22 16:44 | -3.03349 | -60.04511 | 270 ft | 0 kts | 262° |
| 2026-04-22 16:45 | -3.03350 | -60.04520 | 270 ft | 1 kts | 262° |
| 2026-04-22 16:45 | -3.03353 | -60.04546 | 270 ft | 6 kts | 264° |
| 2026-04-22 16:46 | -3.03356 | -60.04604 | 271 ft | 10 kts | 267° |
| 2026-04-22 16:46 | -3.03361 | -60.04694 | 270 ft | 13 kts | 266° |
| 2026-04-22 16:46 | -3.03376 | -60.04770 | 270 ft | 9 kts | 246° |
| 2026-04-22 16:46 | -3.03405 | -60.04821 | 270 ft | 8 kts | 230° |
| 2026-04-22 16:47 | -3.03451 | -60.04863 | 270 ft | 9 kts | 216° |
| 2026-04-22 16:47 | -3.03504 | -60.04899 | 270 ft | 9 kts | 216° |
| 2026-04-22 16:47 | -3.03534 | -60.04926 | 270 ft | 7 kts | 228° |
| 2026-04-22 16:47 | -3.03569 | -60.04981 | 270 ft | 6 kts | 245° |
| 2026-04-22 16:48 | -3.03587 | -60.05025 | 270 ft | 7 kts | 255° |
| 2026-04-22 16:48 | -3.03600 | -60.05077 | 270 ft | 8 kts | 254° |
| 2026-04-22 16:48 | -3.03614 | -60.05130 | 270 ft | 6 kts | 255° |
| 2026-04-22 16:48 | -3.03623 | -60.05162 | 270 ft | 3 kts | 255° |
| 2026-04-22 16:49 | -3.03629 | -60.05187 | 270 ft | 3 kts | 255° |
| 2026-04-22 16:49 | -3.03641 | -60.05229 | 270 ft | 8 kts | 255° |
| 2026-04-22 16:49 | -3.03660 | -60.05299 | 270 ft | 11 kts | 254° |
| 2026-04-22 16:49 | -3.03679 | -60.05387 | 270 ft | 13 kts | 260° |
| 2026-04-22 16:50 | -3.03688 | -60.05476 | 270 ft | 11 kts | 268° |
| 2026-04-22 16:50 | -3.03691 | -60.05552 | 270 ft | 10 kts | 270° |
| 2026-04-22 16:50 | -3.03691 | -60.05627 | 270 ft | 12 kts | 270° |
| 2026-04-22 16:50 | -3.03691 | -60.05730 | 270 ft | 15 kts | 269° |
| 2026-04-22 16:51 | -3.03692 | -60.05837 | 270 ft | 16 kts | 270° |
| 2026-04-22 16:51 | -3.03691 | -60.05960 | 270 ft | 19 kts | 270° |
| 2026-04-22 16:51 | -3.03692 | -60.06088 | 270 ft | 17 kts | 269° |
| 2026-04-22 16:51 | -3.03749 | -60.06171 | 270 ft | 14 kts | 196° |
| 2026-04-22 16:52 | -3.03844 | -60.06170 | 270 ft | 12 kts | 148° |
| 2026-04-22 16:52 | -3.03861 | -60.06080 | 270 ft | 18 kts | 92° |
| 2026-04-22 16:52 | -3.03864 | -60.05718 | 270 ft | 85 kts | 87° |
| 2026-04-22 16:52 | -3.03861 | -60.04919 | 271 ft | 140 kts | 90° |
| 2026-04-22 16:53 | -3.03870 | -60.03796 | 375 ft | 174 kts | 90° |
| 2026-04-22 16:53 | -3.03850 | -60.02585 | 954 ft | 176 kts | 89° |
| 2026-04-22 16:53 | -3.03803 | -60.01393 | 1634 ft | 175 kts | 88° |
| 2026-04-22 16:53 | -3.03794 | -60.00112 | 1975 ft | 191 kts | 91° |
| 2026-04-22 16:54 | -3.03841 | -59.98741 | 2347 ft | 203 kts | 92° |
| 2026-04-22 16:54 | -3.03923 | -59.97284 | 2654 ft | 221 kts | 93° |
| 2026-04-22 16:54 | -3.04001 | -59.95686 | 3033 ft | 238 kts | 92° |
| 2026-04-22 16:54 | -3.04053 | -59.93990 | 3465 ft | 253 kts | 91° |
| 2026-04-22 16:55 | -3.04113 | -59.92190 | 3947 ft | 264 kts | 91° |
| 2026-04-22 16:55 | -3.04187 | -59.90336 | 4620 ft | 268 kts | 91° |
| 2026-04-22 16:55 | -3.04251 | -59.88495 | 5326 ft | 269 kts | 91° |
| 2026-04-22 16:55 | -3.04307 | -59.86637 | 6024 ft | 270 kts | 91° |
| 2026-04-22 16:56 | -3.04366 | -59.84751 | 6705 ft | 273 kts | 91° |
| 2026-04-22 16:56 | -3.04429 | -59.82856 | 7348 ft | 277 kts | 91° |
| 2026-04-22 16:56 | -3.04494 | -59.80932 | 8050 ft | 278 kts | 91° |
| 2026-04-22 16:56 | -3.04563 | -59.78983 | 8702 ft | 282 kts | 92° |
| 2026-04-22 16:57 | -3.04630 | -59.77042 | 9395 ft | 284 kts | 92° |
| 2026-04-22 16:57 | -3.04697 | -59.75066 | 10072 ft | 288 kts | 92° |
| 2026-04-22 16:57 | -3.04766 | -59.73032 | 10497 ft | 301 kts | 92° |
| 2026-04-22 16:57 | -3.04842 | -59.70860 | 10834 ft | 317 kts | 92° |
| 2026-04-22 16:58 | -3.04895 | -59.69371 | 11054 ft | 327 kts | 92° |
| 2026-04-22 16:58 | -3.05009 | -59.66264 | 11436 ft | 347 kts | 92° |
| 2026-04-22 16:58 | -3.05095 | -59.63852 | 11972 ft | 352 kts | 92° |
| 2026-04-22 16:58 | -3.05181 | -59.61412 | 12608 ft | 354 kts | 92° |
| 2026-04-22 16:59 | -3.05266 | -59.58939 | 13230 ft | 357 kts | 92° |
| 2026-04-22 16:59 | -3.05350 | -59.56435 | 13849 ft | 360 kts | 92° |
| 2026-04-22 16:59 | -3.05434 | -59.53945 | 14460 ft | 363 kts | 92° |
| 2026-04-22 16:59 | -3.05521 | -59.51407 | 15073 ft | 366 kts | 92° |
| 2026-04-22 17:00 | -3.05609 | -59.48873 | 15684 ft | 369 kts | 92° |
| 2026-04-22 17:00 | -3.05789 | -59.43731 | 16850 ft | 374 kts | 92° |
| 2026-04-22 17:00 | -3.05882 | -59.41123 | 17421 ft | 376 kts | 92° |
| 2026-04-22 17:01 | -3.05975 | -59.38513 | 17952 ft | 379 kts | 92° |
| 2026-04-22 17:01 | -3.06069 | -59.35873 | 18490 ft | 382 kts | 92° |
| 2026-04-22 17:01 | -3.06164 | -59.33233 | 18999 ft | 385 kts | 92° |
| 2026-04-22 17:01 | -3.06262 | -59.30535 | 19476 ft | 389 kts | 92° |
| 2026-04-22 17:02 | -3.06358 | -59.27851 | 19932 ft | 392 kts | 92° |
| 2026-04-22 17:02 | -3.06454 | -59.25111 | 20475 ft | 393 kts | 92° |
| 2026-04-22 17:02 | -3.06548 | -59.22398 | 20949 ft | 396 kts | 92° |
| 2026-04-22 17:02 | -3.06645 | -59.19642 | 21370 ft | 400 kts | 92° |
| 2026-04-22 17:03 | -3.06743 | -59.16867 | 21805 ft | 403 kts | 92° |
| 2026-04-22 17:03 | -3.06843 | -59.14041 | 22319 ft | 403 kts | 92° |
| 2026-04-22 17:03 | -3.06941 | -59.11268 | 22741 ft | 406 kts | 92° |
| 2026-04-22 17:03 | -3.07041 | -59.08438 | 23214 ft | 408 kts | 91° |
| 2026-04-22 17:04 | -3.07108 | -59.06534 | 23450 ft | 411 kts | 92° |
| 2026-04-22 17:04 | -3.07243 | -59.02726 | 23951 ft | 416 kts | 92° |
| 2026-04-22 17:04 | -3.07346 | -58.99811 | 24399 ft | 417 kts | 92° |
| 2026-04-22 17:04 | -3.07447 | -58.96931 | 24697 ft | 422 kts | 91° |
| 2026-04-22 17:05 | -3.07550 | -58.93969 | 25164 ft | 423 kts | 91° |
| 2026-04-22 17:05 | -3.07652 | -58.91041 | 25530 ft | 426 kts | 91° |
| 2026-04-22 17:05 | -3.07756 | -58.88059 | 25921 ft | 428 kts | 91° |
| 2026-04-22 17:05 | -3.07858 | -58.85115 | 26264 ft | 431 kts | 91° |
| 2026-04-22 17:06 | -3.07963 | -58.82087 | 26644 ft | 433 kts | 91° |
| 2026-04-22 17:06 | -3.08066 | -58.79086 | 26989 ft | 436 kts | 91° |
| 2026-04-22 17:06 | -3.08169 | -58.76070 | 27287 ft | 439 kts | 91° |
| 2026-04-22 17:06 | -3.08275 | -58.72987 | 27600 ft | 443 kts | 91° |
| 2026-04-22 17:07 | -3.08379 | -58.69952 | 27945 ft | 445 kts | 91° |
| 2026-04-22 17:07 | -3.08486 | -58.66839 | 28294 ft | 447 kts | 91° |
| 2026-04-22 17:07 | -3.08592 | -58.63721 | 28585 ft | 450 kts | 91° |
| 2026-04-22 17:07 | -3.08699 | -58.60609 | 29089 ft | 448 kts | 91° |
| 2026-04-22 17:08 | -3.08804 | -58.57516 | 29737 ft | 443 kts | 91° |
| 2026-04-22 17:08 | -3.08907 | -58.54482 | 30245 ft | 441 kts | 91° |
| 2026-04-22 17:08 | -3.09011 | -58.51438 | 30675 ft | 441 kts | 91° |
| 2026-04-22 17:08 | -3.09115 | -58.48378 | 30856 ft | 443 kts | 91° |
| 2026-04-22 17:09 | -3.09324 | -58.42236 | 30856 ft | 438 kts | 91° |
| 2026-04-22 17:09 | -3.09231 | -58.36166 | 30855 ft | 439 kts | 83° |
| 2026-04-22 17:10 | -3.08186 | -58.30179 | 30853 ft | 439 kts | 77° |
| 2026-04-22 17:10 | -3.06723 | -58.24285 | 30852 ft | 438 kts | 75° |
| 2026-04-22 17:11 | -3.05189 | -58.18357 | 30852 ft | 438 kts | 75° |
| 2026-04-22 17:11 | -3.03693 | -58.12470 | 30849 ft | 438 kts | 75° |
| 2026-04-22 17:12 | -3.02223 | -58.06583 | 30847 ft | 437 kts | 75° |
| 2026-04-22 17:12 | -3.00764 | -58.00691 | 30847 ft | 438 kts | 76° |
| 2026-04-22 17:13 | -2.99302 | -57.94771 | 30846 ft | 438 kts | 76° |
| 2026-04-22 17:13 | -2.97845 | -57.88862 | 30846 ft | 440 kts | 76° |
| 2026-04-22 17:14 | -2.96376 | -57.82901 | 30846 ft | 438 kts | 76° |
| 2026-04-22 17:14 | -2.94915 | -57.76980 | 30846 ft | 439 kts | 76° |
| 2026-04-22 17:15 | -2.93451 | -57.71042 | 30851 ft | 439 kts | 76° |
| 2026-04-22 17:15 | -2.92002 | -57.65161 | 30857 ft | 438 kts | 76° |
| 2026-04-22 17:16 | -2.90546 | -57.59259 | 30858 ft | 438 kts | 76° |
| 2026-04-22 17:16 | -2.89086 | -57.53337 | 30856 ft | 440 kts | 76° |
| 2026-04-22 17:17 | -2.87619 | -57.47396 | 30855 ft | 438 kts | 76° |
| 2026-04-22 17:17 | -2.86157 | -57.41478 | 30856 ft | 439 kts | 76° |
| 2026-04-22 17:18 | -2.84697 | -57.35566 | 30859 ft | 439 kts | 76° |
| 2026-04-22 17:18 | -2.83233 | -57.29641 | 30865 ft | 438 kts | 76° |
| 2026-04-22 17:19 | -2.80311 | -57.17824 | 30866 ft | 439 kts | 76° |
| 2026-04-22 17:20 | -2.77383 | -57.05979 | 30863 ft | 440 kts | 76° |
| 2026-04-22 17:21 | -2.75195 | -56.97127 | 30851 ft | 438 kts | 76° |
| 2026-04-22 17:22 | -2.73001 | -56.88256 | 30845 ft | 437 kts | 76° |
| 2026-04-22 17:23 | -2.70815 | -56.79418 | 30845 ft | 439 kts | 76° |
| 2026-04-22 17:23 | -2.68622 | -56.70563 | 30847 ft | 439 kts | 76° |
| 2026-04-22 17:24 | -2.67148 | -56.64608 | 30848 ft | 439 kts | 76° |
| 2026-04-22 17:24 | -2.65687 | -56.58715 | 30849 ft | 439 kts | 76° |
| 2026-04-22 17:25 | -2.64222 | -56.52801 | 30851 ft | 439 kts | 76° |
| 2026-04-22 17:25 | -2.62754 | -56.46878 | 30852 ft | 440 kts | 76° |
| 2026-04-22 17:26 | -2.61408 | -56.40924 | 30583 ft | 434 kts | 80° |
| 2026-04-22 17:26 | -2.60979 | -56.37985 | 30117 ft | 429 kts | 82° |
| 2026-04-22 17:26 | -2.60646 | -56.35046 | 29710 ft | 422 kts | 83° |
| 2026-04-22 17:27 | -2.60446 | -56.33100 | 29386 ft | 419 kts | 84° |
| 2026-04-22 17:27 | -2.60058 | -56.29250 | 28635 ft | 416 kts | 84° |
| 2026-04-22 17:27 | -2.59767 | -56.26412 | 28074 ft | 414 kts | 83° |
| 2026-04-22 17:27 | -2.59467 | -56.23569 | 27494 ft | 412 kts | 83° |
| 2026-04-22 17:28 | -2.59160 | -56.20724 | 26907 ft | 411 kts | 83° |
| 2026-04-22 17:28 | -2.58850 | -56.17914 | 26320 ft | 409 kts | 83° |
| 2026-04-22 17:28 | -2.58531 | -56.15071 | 25723 ft | 408 kts | 83° |
| 2026-04-22 17:28 | -2.58214 | -56.12264 | 25131 ft | 406 kts | 83° |
| 2026-04-22 17:29 | -2.57900 | -56.09506 | 24547 ft | 405 kts | 83° |
| 2026-04-22 17:29 | -2.57579 | -56.06696 | 23953 ft | 403 kts | 83° |
| 2026-04-22 17:29 | -2.57260 | -56.03912 | 23364 ft | 401 kts | 83° |
| 2026-04-22 17:29 | -2.56946 | -56.01177 | 22783 ft | 400 kts | 83° |
| 2026-04-22 17:30 | -2.56631 | -55.98428 | 22198 ft | 398 kts | 83° |
| 2026-04-22 17:30 | -2.56317 | -55.95694 | 21626 ft | 396 kts | 83° |
| 2026-04-22 17:30 | -2.56005 | -55.92978 | 21048 ft | 395 kts | 84° |
| 2026-04-22 17:30 | -2.55693 | -55.90261 | 20463 ft | 393 kts | 84° |
| 2026-04-22 17:31 | -2.55381 | -55.87554 | 19876 ft | 391 kts | 84° |
| 2026-04-22 17:31 | -2.55070 | -55.84856 | 19287 ft | 389 kts | 84° |
| 2026-04-22 17:31 | -2.54761 | -55.82174 | 18706 ft | 387 kts | 84° |
| 2026-04-22 17:31 | -2.54454 | -55.79522 | 18129 ft | 384 kts | 84° |
| 2026-04-22 17:32 | -2.54149 | -55.76883 | 17549 ft | 382 kts | 84° |
| 2026-04-22 17:32 | -2.53849 | -55.74274 | 16980 ft | 379 kts | 84° |
| 2026-04-22 17:32 | -2.53547 | -55.71650 | 16400 ft | 376 kts | 84° |
| 2026-04-22 17:32 | -2.53250 | -55.69076 | 15830 ft | 373 kts | 84° |
| 2026-04-22 17:33 | -2.53051 | -55.67369 | 15451 ft | 372 kts | 84° |
| 2026-04-22 17:33 | -2.52657 | -55.63979 | 14696 ft | 368 kts | 84° |
| 2026-04-22 17:33 | -2.52364 | -55.61439 | 14134 ft | 365 kts | 84° |
| 2026-04-22 17:33 | -2.52077 | -55.58942 | 13580 ft | 362 kts | 84° |
| 2026-04-22 17:34 | -2.51791 | -55.56453 | 13023 ft | 359 kts | 84° |
| 2026-04-22 17:34 | -2.51508 | -55.53999 | 12472 ft | 356 kts | 84° |
| 2026-04-22 17:34 | -2.51227 | -55.51555 | 11921 ft | 353 kts | 84° |
| 2026-04-22 17:34 | -2.50948 | -55.49126 | 11377 ft | 349 kts | 84° |
| 2026-04-22 17:35 | -2.50683 | -55.46763 | 10847 ft | 346 kts | 84° |
| 2026-04-22 17:35 | -2.50436 | -55.44365 | 10377 ft | 341 kts | 84° |
| 2026-04-22 17:35 | -2.50210 | -55.42044 | 10160 ft | 328 kts | 84° |
| 2026-04-22 17:35 | -2.49998 | -55.39838 | 10053 ft | 313 kts | 84° |
| 2026-04-22 17:36 | -2.49792 | -55.37714 | 9884 ft | 302 kts | 84° |
| 2026-04-22 17:36 | -2.49588 | -55.35628 | 9495 ft | 300 kts | 84° |
| 2026-04-22 17:36 | -2.49383 | -55.33541 | 9097 ft | 298 kts | 84° |
| 2026-04-22 17:36 | -2.49183 | -55.31504 | 8722 ft | 295 kts | 84° |
| 2026-04-22 17:37 | -2.48988 | -55.29511 | 8363 ft | 285 kts | 84° |
| 2026-04-22 17:37 | -2.48795 | -55.27560 | 8011 ft | 275 kts | 84° |
| 2026-04-22 17:37 | -2.48608 | -55.25679 | 7684 ft | 270 kts | 84° |
| 2026-04-22 17:37 | -2.48419 | -55.23819 | 7340 ft | 266 kts | 84° |
| 2026-04-22 17:38 | -2.48235 | -55.22020 | 7013 ft | 257 kts | 84° |
| 2026-04-22 17:38 | -2.48060 | -55.20258 | 6680 ft | 252 kts | 84° |
| 2026-04-22 17:38 | -2.47886 | -55.18528 | 6368 ft | 248 kts | 84° |
| 2026-04-22 17:38 | -2.47717 | -55.16832 | 6055 ft | 244 kts | 84° |
| 2026-04-22 17:39 | -2.47555 | -55.15179 | 5757 ft | 240 kts | 84° |
| 2026-04-22 17:39 | -2.47395 | -55.13533 | 5451 ft | 236 kts | 84° |
| 2026-04-22 17:39 | -2.47075 | -55.10324 | 5038 ft | 222 kts | 84° |
| 2026-04-22 17:40 | -2.46929 | -55.08844 | 4982 ft | 209 kts | 84° |
| 2026-04-22 17:40 | -2.46790 | -55.07450 | 4921 ft | 193 kts | 84° |
| 2026-04-22 17:40 | -2.46636 | -55.06154 | 4783 ft | 184 kts | 82° |
| 2026-04-22 17:40 | -2.46448 | -55.04909 | 4568 ft | 179 kts | 81° |
| 2026-04-22 17:41 | -2.46250 | -55.03681 | 4360 ft | 178 kts | 81° |
| 2026-04-22 17:41 | -2.46050 | -55.02458 | 4163 ft | 177 kts | 81° |
| 2026-04-22 17:41 | -2.45852 | -55.01252 | 3967 ft | 176 kts | 81° |
| 2026-04-22 17:41 | -2.45656 | -55.00056 | 3770 ft | 175 kts | 81° |
| 2026-04-22 17:42 | -2.45460 | -54.98860 | 3604 ft | 173 kts | 81° |
| 2026-04-22 17:42 | -2.45262 | -54.97655 | 3512 ft | 174 kts | 81° |
| 2026-04-22 17:42 | -2.45131 | -54.96861 | 3452 ft | 175 kts | 81° |
| 2026-04-22 17:42 | -2.44867 | -54.95250 | 3118 ft | 177 kts | 81° |
| 2026-04-22 17:43 | -2.44668 | -54.94043 | 2879 ft | 176 kts | 81° |
| 2026-04-22 17:43 | -2.44471 | -54.92840 | 2642 ft | 174 kts | 81° |
| 2026-04-22 17:43 | -2.44274 | -54.91641 | 2408 ft | 173 kts | 81° |
| 2026-04-22 17:43 | -2.44079 | -54.90454 | 2175 ft | 173 kts | 81° |
| 2026-04-22 17:44 | -2.43885 | -54.89272 | 1943 ft | 169 kts | 81° |
| 2026-04-22 17:44 | -2.43696 | -54.88133 | 1732 ft | 164 kts | 81° |
| 2026-04-22 17:44 | -2.43518 | -54.87042 | 1540 ft | 155 kts | 81° |
| 2026-04-22 17:44 | -2.43345 | -54.85992 | 1298 ft | 151 kts | 81° |
| 2026-04-22 17:45 | -2.43174 | -54.84961 | 1109 ft | 152 kts | 82° |
| 2026-04-22 17:45 | -2.43005 | -54.83922 | 902 ft | 151 kts | 81° |
| 2026-04-22 17:45 | -2.42833 | -54.82884 | 719 ft | 151 kts | 81° |
| 2026-04-22 17:45 | -2.42676 | -54.81855 | 552 ft | 150 kts | 79° |
| 2026-04-22 17:46 | -2.42495 | -54.80825 | 364 ft | 152 kts | 83° |
| 2026-04-22 17:46 | -2.42337 | -54.79787 | 221 ft | 149 kts | 82° |
| 2026-04-22 17:46 | -2.42169 | -54.78828 | 200 ft | 114 kts | 77° |
| 2026-04-22 17:46 | -2.42082 | -54.78283 | 184 ft | 42 kts | 81° |
| 2026-04-22 17:47 | -2.42103 | -54.78144 | 178 ft | 8 kts | 96° |
| 2026-04-22 17:47 | -2.42080 | -54.78141 | 177 ft | 7 kts | 328° |
| 2026-04-22 17:47 | -2.42064 | -54.78189 | 179 ft | 7 kts | 261° |
| 2026-04-22 17:47 | -2.42073 | -54.78217 | 180 ft | 6 kts | 247° |
| 2026-04-22 17:48 | -2.42108 | -54.78230 | 182 ft | 12 kts | 189° |
| 2026-04-22 17:48 | -2.42171 | -54.78252 | 184 ft | 0 kts | 205° |
| 2026-04-22 17:48 | -2.42195 | -54.78263 | 186 ft | 14 kts | 205° |
| 2026-04-22 17:48 | -2.42286 | -54.78305 | 189 ft | 8 kts | 204° |
| 2026-04-22 17:49 | -2.42313 | -54.78326 | 190 ft | 1 kts | 234° |
| 2026-04-22 17:49 | -2.42314 | -54.78328 | 190 ft | 0 kts | 234° |
| 2026-04-22 17:49 | -2.42317 | -54.78332 | 190 ft | 0 kts | 234° |
| 2026-04-22 17:49 | -2.42320 | -54.78336 | 190 ft | 1 kts | 235° |
| 2026-04-22 17:50 | -2.42326 | -54.78341 | 191 ft | 2 kts | 214° |
| 2026-04-22 17:50 | -2.42345 | -54.78348 | 191 ft | 4 kts | 200° |
| 2026-04-22 17:50 | -2.42358 | -54.78353 | 192 ft | 0 kts | 200° |
| 2026-04-22 17:51 | -2.42358 | -54.78352 | 192 ft | 0 kts | 200° |
| 2026-04-22 17:51 | -2.42358 | -54.78353 | 192 ft | 0 kts | 200° |
| 2026-04-22 17:52 | -2.42358 | -54.78352 | 192 ft | 0 kts | 200° |